createdAt,value
2018-09-21T00:00:52.938Z,96261.27
2018-09-21T00:03:21.198Z,96255.48
2018-09-21T00:05:49.979Z,96245.34
2018-09-21T00:08:18.206Z,96244.75
2018-09-21T00:10:46.546Z,96241.48
2018-09-21T00:13:14.802Z,96239.02
2018-09-21T00:15:43.081Z,96240.30
2018-09-21T00:18:11.369Z,96246.91
2018-09-21T00:20:39.619Z,96239.98
2018-09-21T00:23:07.843Z,96241.86
2018-09-21T00:25:36.320Z,96242.08
2018-09-21T00:28:04.651Z,96235.37
2018-09-21T00:30:32.882Z,96238.27
2018-09-21T00:33:01.122Z,96241.33
2018-09-21T00:35:29.338Z,96238.58
2018-09-21T00:37:57.674Z,96232.84
2018-09-21T00:40:25.915Z,96234.66
2018-09-21T00:42:54.197Z,96239.42
2018-09-21T00:45:22.462Z,96237.48
2018-09-21T00:47:50.728Z,96230.16
2018-09-21T00:50:18.955Z,96214.33
2018-09-21T00:52:47.203Z,96223.61
2018-09-21T00:55:15.453Z,96221.40
2018-09-21T00:57:43.743Z,96218.94
2018-09-21T01:00:12.218Z,96218.63
2018-09-21T01:02:40.746Z,96222.27
2018-09-21T01:05:08.998Z,96223.30
2018-09-21T01:07:37.212Z,96221.67
2018-09-21T01:10:05.526Z,96223.45
2018-09-21T01:12:33.746Z,96214.50
2018-09-21T01:15:01.994Z,96223.66
2018-09-21T01:17:30.402Z,96213.47
2018-09-21T01:19:58.678Z,96215.86
2018-09-21T01:22:26.903Z,96212.57
2018-09-21T01:24:55.244Z,96207.79
2018-09-21T01:27:23.461Z,96203.02
2018-09-21T01:29:51.767Z,96201.45
2018-09-21T01:32:20.015Z,96195.67
2018-09-21T01:34:48.749Z,96196.33
2018-09-21T01:37:16.990Z,96200.13
2018-09-21T01:39:45.246Z,96198.05
2018-09-21T01:42:13.547Z,96192.16
2018-09-21T01:44:41.791Z,96190.61
2018-09-21T01:47:10.322Z,96189.13
2018-09-21T01:49:38.549Z,96189.93
2018-09-21T01:52:06.856Z,96183.98
2018-09-21T01:54:35.257Z,96175.34
2018-09-21T01:57:03.550Z,96165.59
2018-09-21T01:59:31.786Z,96177.74
2018-09-21T02:02:00.295Z,96162.91
2018-09-21T02:04:33.819Z,96169.86
2018-09-21T02:07:02.106Z,96165.25
2018-09-21T02:09:30.372Z,96167.61
2018-09-21T02:11:58.599Z,96168.05
2018-09-21T02:14:26.882Z,96170.38
2018-09-21T02:16:55.270Z,96161.74
2018-09-21T02:19:23.522Z,96161.43
2018-09-21T02:21:52.078Z,96162.17
2018-09-21T02:24:21.134Z,96158.69
2018-09-21T02:26:49.713Z,96163.20
2018-09-21T02:29:18.311Z,96156.75
2018-09-21T02:31:47.102Z,96145.20
2018-09-21T02:34:15.458Z,96153.02
2018-09-21T02:36:43.940Z,96143.05
2018-09-21T02:39:12.146Z,96155.09
2018-09-21T02:41:40.462Z,96152.42
2018-09-21T02:44:08.866Z,96152.63
2018-09-21T02:46:43.694Z,96159.86
2018-09-21T02:49:12.074Z,96151.54
2018-09-21T02:51:40.328Z,96144.75
2018-09-21T02:54:08.582Z,96144.97
2018-09-21T02:56:37.328Z,96147.30
2018-09-21T02:59:05.682Z,96135.98
2018-09-21T03:01:33.914Z,96131.34
2018-09-21T03:04:02.418Z,96129.41
2018-09-21T03:06:30.646Z,96124.52
2018-09-21T03:08:58.878Z,96121.73
2018-09-21T03:11:27.186Z,96118.78
2018-09-21T03:13:55.411Z,96118.78
2018-09-21T03:16:23.702Z,96130.83
2018-09-21T03:18:52.015Z,96124.66
2018-09-21T03:21:20.266Z,96131.57
2018-09-21T03:23:49.410Z,96134.53
2018-09-21T03:26:17.782Z,96124.88
2018-09-21T03:28:46.366Z,96125.69
2018-09-21T03:31:14.583Z,96137.95
2018-09-21T03:33:43.426Z,96129.17
2018-09-21T03:36:11.678Z,96121.67
2018-09-21T03:38:39.910Z,96140.62
2018-09-21T03:41:08.175Z,96130.16
2018-09-21T03:43:36.419Z,96126.36
2018-09-21T03:46:04.668Z,96132.67
2018-09-21T03:48:32.943Z,96140.63
2018-09-21T03:51:01.166Z,96118.84
2018-09-21T03:53:29.418Z,96114.94
2018-09-21T03:55:57.704Z,96117.22
2018-09-21T03:58:26.038Z,96134.63
2018-09-21T04:00:54.349Z,96126.28
2018-09-21T04:03:22.770Z,96120.11
2018-09-21T04:05:51.686Z,96121.23
2018-09-21T04:08:19.955Z,96118.56
2018-09-21T04:10:48.284Z,96124.66
2018-09-21T04:13:16.617Z,96124.87
2018-09-21T04:15:44.859Z,96122.41
2018-09-21T04:18:13.394Z,96127.47
2018-09-21T04:20:41.722Z,96123.14
2018-09-21T04:23:10.028Z,96121.95
2018-09-21T04:25:38.854Z,96119.70
2018-09-21T04:28:07.085Z,96125.50
2018-09-21T04:30:35.310Z,96132.02
2018-09-21T04:33:03.562Z,96119.52
2018-09-21T04:35:31.778Z,96125.61
2018-09-21T04:38:00.010Z,96125.29
2018-09-21T04:40:28.319Z,96120.68
2018-09-21T04:42:56.646Z,96119.41
2018-09-21T04:45:24.882Z,96133.25
2018-09-21T04:47:53.317Z,96120.02
2018-09-21T04:50:21.666Z,96124.45
2018-09-21T04:52:49.895Z,96120.63
2018-09-21T04:55:18.250Z,96124.60
2018-09-21T04:57:46.494Z,96125.30
2018-09-21T05:00:14.779Z,96121.88
2018-09-21T05:02:43.175Z,96122.95
2018-09-21T05:05:11.464Z,96123.41
2018-09-21T05:07:39.687Z,96126.20
2018-09-21T05:10:07.989Z,96131.66
2018-09-21T05:12:36.210Z,96135.18
2018-09-21T05:15:04.846Z,96132.52
2018-09-21T05:17:33.244Z,96133.04
2018-09-21T05:20:01.595Z,96136.23
2018-09-21T05:22:29.819Z,96136.84
2018-09-21T05:24:59.430Z,96141.08
2018-09-21T05:27:27.808Z,96146.19
2018-09-21T05:29:56.009Z,96142.70
2018-09-21T05:32:25.260Z,96141.48
2018-09-21T05:34:53.526Z,96140.27
2018-09-21T05:37:21.788Z,96141.41
2018-09-21T05:39:50.094Z,96137.37
2018-09-21T05:42:18.323Z,96139.92
2018-09-21T05:44:47.238Z,96142.79
2018-09-21T05:47:15.586Z,96122.31
2018-09-21T05:49:43.908Z,96128.22
2018-09-21T05:52:12.298Z,96132.70
2018-09-21T05:54:40.563Z,96132.46
2018-09-21T05:57:08.824Z,96131.79
2018-09-21T05:59:37.146Z,96152.26
2018-09-21T06:02:05.483Z,96131.84
2018-09-21T06:04:33.854Z,96131.65
2018-09-21T06:07:02.224Z,96131.09
2018-09-21T06:09:30.527Z,96130.89
2018-09-21T06:11:58.798Z,96128.98
2018-09-21T06:14:27.047Z,96131.38
2018-09-21T06:16:55.319Z,96136.38
2018-09-21T06:19:23.692Z,96137.44
2018-09-21T06:21:52.595Z,96139.30
2018-09-21T06:24:20.899Z,96145.37
2018-09-21T06:26:49.178Z,96140.41
2018-09-21T06:29:17.439Z,96136.78
2018-09-21T06:31:45.768Z,96155.97
2018-09-21T06:34:13.994Z,96145.49
2018-09-21T06:36:42.252Z,96146.47
2018-09-21T06:39:11.839Z,96150.94
2018-09-21T06:41:40.423Z,96151.03
2018-09-21T06:44:09.214Z,96142.09
2018-09-21T06:46:37.480Z,96162.11
2018-09-21T06:49:06.119Z,96149.89
2018-09-21T06:51:34.531Z,96156.44
2018-09-21T06:54:02.884Z,96153.33
2018-09-21T06:56:31.106Z,96140.58
2018-09-21T06:58:59.355Z,96143.20
2018-09-21T07:01:27.769Z,96147.13
2018-09-21T07:03:55.955Z,96142.33
2018-09-21T07:06:24.258Z,96147.37
2018-09-21T07:08:53.550Z,96137.61
2018-09-21T07:11:21.902Z,96133.73
2018-09-21T07:13:50.335Z,96133.94
2018-09-21T07:16:18.625Z,96143.05
2018-09-21T07:18:46.900Z,96134.67
2018-09-21T07:21:15.234Z,96135.94
2018-09-21T07:23:43.715Z,96142.25
2018-09-21T07:26:11.958Z,96144.59
2018-09-21T07:28:40.243Z,96141.04
2018-09-21T07:31:08.636Z,96135.27
2018-09-21T07:33:37.000Z,96131.16
2018-09-21T07:36:05.283Z,96133.30
2018-09-21T07:38:33.599Z,96130.27
2018-09-21T07:41:01.959Z,96133.44
2018-09-21T07:43:30.207Z,96138.09
2018-09-21T07:45:58.655Z,96137.03
2018-09-21T07:48:26.969Z,96128.06
2018-09-21T07:50:55.239Z,96141.94
2018-09-21T07:53:23.497Z,96130.25
2018-09-21T07:55:51.738Z,96133.34
2018-09-21T07:58:20.069Z,96129.47
2018-09-21T08:00:48.628Z,96124.26
2018-09-21T08:03:16.929Z,96127.98
2018-09-21T08:05:45.206Z,96128.45
2018-09-21T08:08:13.466Z,96126.76
2018-09-21T08:10:41.860Z,96128.83
2018-09-21T08:13:10.121Z,96132.52
2018-09-21T08:15:38.444Z,96130.52
2018-09-21T08:18:06.694Z,96126.02
2018-09-21T08:20:34.963Z,96129.12
2018-09-21T08:23:03.359Z,96121.42
2018-09-21T08:25:31.609Z,96123.20
2018-09-21T08:27:59.997Z,96125.77
2018-09-21T08:30:28.269Z,96118.45
2018-09-21T08:32:56.517Z,96122.89
2018-09-21T08:35:24.748Z,96129.75
2018-09-21T08:37:53.028Z,96122.61
2018-09-21T08:40:21.257Z,96121.18
2018-09-21T08:42:49.607Z,96122.70
2018-09-21T08:45:17.870Z,96116.86
2018-09-21T08:47:46.203Z,96120.51
2018-09-21T08:50:14.419Z,96122.75
2018-09-21T08:52:42.676Z,96116.13
2018-09-21T08:55:11.044Z,96125.72
2018-09-21T08:57:39.282Z,96118.52
2018-09-21T09:00:07.626Z,96117.84
2018-09-21T09:02:35.855Z,96123.57
2018-09-21T09:05:04.175Z,96110.19
2018-09-21T09:07:32.653Z,96117.91
2018-09-21T09:10:00.887Z,96120.98
2018-09-21T09:12:29.129Z,96114.02
2018-09-21T09:14:57.475Z,96108.70
2018-09-21T09:17:25.847Z,96102.89
2018-09-21T09:19:54.110Z,96107.64
2018-09-21T09:22:22.485Z,96106.42
2018-09-21T09:24:50.867Z,96112.17
2018-09-21T09:27:19.075Z,96110.64
2018-09-21T09:29:48.146Z,96112.87
2018-09-21T09:32:16.388Z,96115.36
2018-09-21T09:34:44.599Z,96095.92
2018-09-21T09:37:12.888Z,96100.36
2018-09-21T09:39:41.243Z,96105.59
2018-09-21T09:42:09.500Z,96105.13
2018-09-21T09:44:37.905Z,96097.08
2018-09-21T09:47:06.416Z,96100.37
2018-09-21T09:49:34.842Z,96090.40
2018-09-21T09:52:03.108Z,96093.15
2018-09-21T09:54:31.387Z,96088.88
2018-09-21T09:56:59.686Z,96094.64
2018-09-21T09:59:28.005Z,96087.64
2018-09-21T10:01:56.224Z,96078.48
2018-09-21T10:04:24.445Z,96077.18
2018-09-21T10:06:52.799Z,96076.64
2018-09-21T10:09:21.144Z,96075.30
2018-09-21T10:11:49.427Z,96080.49
2018-09-21T10:14:17.749Z,96073.45
2018-09-21T10:16:45.972Z,96068.59
2018-09-21T10:19:14.226Z,96070.22
2018-09-21T10:21:42.479Z,96064.25
2018-09-21T10:24:10.782Z,96065.08
2018-09-21T10:26:39.021Z,96059.90
2018-09-21T10:29:07.401Z,96057.49
2018-09-21T10:31:35.633Z,96060.71
2018-09-21T10:34:03.881Z,96055.27
2018-09-21T10:36:32.173Z,96052.49
2018-09-21T10:39:00.561Z,96049.47
2018-09-21T10:41:28.857Z,96053.21
2018-09-21T10:43:58.370Z,96056.48
2018-09-21T10:46:26.618Z,96051.30
2018-09-21T10:48:54.882Z,96052.31
2018-09-21T10:51:23.227Z,96040.58
2018-09-21T10:53:51.466Z,96040.00
2018-09-21T10:56:19.725Z,96037.52
2018-09-21T10:58:48.330Z,96031.20
2018-09-21T11:01:16.570Z,96022.17
2018-09-21T11:03:44.955Z,96031.59
2018-09-21T11:06:13.369Z,96024.98
2018-09-21T11:08:41.807Z,96021.33
2018-09-21T11:11:10.195Z,96017.15
2018-09-21T11:13:38.518Z,96011.63
2018-09-21T11:16:07.991Z,96003.91
2018-09-21T11:18:36.260Z,96000.50
2018-09-21T11:21:04.603Z,95995.69
2018-09-21T11:23:32.919Z,95992.22
2018-09-21T11:26:01.208Z,95994.81
2018-09-21T11:28:29.509Z,95994.72
2018-09-21T11:30:57.882Z,95988.09
2018-09-21T11:33:26.115Z,95991.27
2018-09-21T11:35:54.528Z,95983.05
2018-09-21T11:38:22.775Z,95987.08
2018-09-21T11:40:51.096Z,95984.48
2018-09-21T11:43:19.469Z,95975.62
2018-09-21T11:45:47.863Z,95979.31
2018-09-21T11:48:16.187Z,95972.20
2018-09-21T11:50:44.501Z,95973.48
2018-09-21T11:53:13.671Z,95969.27
2018-09-21T11:55:43.258Z,95961.95
2018-09-21T11:58:11.607Z,95963.61
2018-09-21T12:00:40.200Z,95955.65
2018-09-21T12:03:08.506Z,95962.97
2018-09-21T12:05:36.821Z,95958.94
2018-09-21T12:08:05.155Z,95961.10
2018-09-21T12:10:33.412Z,95959.02
2018-09-21T12:13:01.918Z,95950.67
2018-09-21T12:15:30.146Z,95952.05
2018-09-21T12:17:58.555Z,95946.61
2018-09-21T12:20:27.066Z,95945.24
2018-09-21T12:22:55.365Z,95935.69
2018-09-21T12:25:23.706Z,95933.80
2018-09-21T12:27:52.215Z,95932.11
2018-09-21T12:30:20.535Z,95932.01
2018-09-21T12:32:48.722Z,95925.71
2018-09-21T12:35:17.138Z,95921.99
2018-09-21T12:37:45.399Z,95920.48
2018-09-21T12:40:13.646Z,95924.39
2018-09-21T12:42:42.663Z,95910.13
2018-09-21T12:45:10.835Z,95915.17
2018-09-21T12:47:39.116Z,95915.30
2018-09-21T12:50:07.907Z,95915.39
2018-09-21T12:52:36.169Z,95905.79
2018-09-21T12:55:04.398Z,95900.34
2018-09-21T12:57:32.799Z,95900.22
2018-09-21T13:00:01.111Z,95900.84
2018-09-21T13:02:29.376Z,95896.66
2018-09-21T13:04:57.779Z,95895.97
2018-09-21T13:07:27.008Z,95899.60
2018-09-21T13:09:55.261Z,95894.28
2018-09-21T13:12:23.635Z,95892.63
2018-09-21T13:14:52.075Z,95897.21
2018-09-21T13:17:20.359Z,95889.16
2018-09-21T13:19:48.669Z,95885.13
2018-09-21T13:22:16.927Z,95883.27
2018-09-21T13:24:45.175Z,95880.53
2018-09-21T13:27:13.815Z,95870.61
2018-09-21T13:29:42.763Z,95877.20
2018-09-21T13:32:11.116Z,95878.44
2018-09-21T13:34:39.339Z,95875.97
2018-09-21T13:37:07.593Z,95879.59
2018-09-21T13:39:35.886Z,95875.42
2018-09-21T13:42:04.187Z,95873.69
2018-09-21T13:44:32.419Z,95872.21
2018-09-21T13:47:00.726Z,95879.23
2018-09-21T13:49:28.990Z,95865.88
2018-09-21T13:51:57.497Z,95870.28
2018-09-21T13:54:25.750Z,95865.02
2018-09-21T13:56:54.077Z,95863.65
2018-09-21T13:59:22.374Z,95860.61
2018-09-21T14:01:51.566Z,95862.97
2018-09-21T14:04:20.499Z,95855.27
2018-09-21T14:06:48.862Z,95855.58
2018-09-21T14:09:17.127Z,95852.09
2018-09-21T14:11:45.481Z,95842.59
2018-09-21T14:14:13.791Z,95839.67
2018-09-21T14:16:42.032Z,95841.00
2018-09-21T14:19:10.378Z,95836.84
2018-09-21T14:21:38.718Z,95829.25
2018-09-21T14:24:07.379Z,95830.38
2018-09-21T14:26:35.838Z,95823.86
2018-09-21T14:29:04.161Z,95816.54
2018-09-21T14:31:36.455Z,95810.70
2018-09-21T14:34:04.708Z,95813.20
2018-09-21T14:36:32.984Z,95806.38
2018-09-21T14:39:01.229Z,95806.72
2018-09-21T14:41:29.483Z,95803.15
2018-09-21T14:43:57.725Z,95805.01
2018-09-21T14:46:26.110Z,95800.34
2018-09-21T14:48:54.343Z,95807.97
2018-09-21T14:51:22.627Z,95807.98
2018-09-21T14:53:50.902Z,95810.63
2018-09-21T14:56:19.147Z,95807.48
2018-09-21T14:58:47.467Z,95803.55
2018-09-21T15:01:15.726Z,95806.75
2018-09-21T15:03:43.955Z,95802.55
2018-09-21T15:06:12.195Z,95798.92
2018-09-21T15:08:40.499Z,95793.88
2018-09-21T15:11:09.319Z,95788.23
2018-09-21T15:13:37.559Z,95788.88
2018-09-21T15:16:06.627Z,95783.42
2018-09-21T15:18:34.899Z,95777.18
2018-09-21T15:21:03.138Z,95779.40
2018-09-21T15:23:31.394Z,95777.83
2018-09-21T15:25:59.726Z,95774.95
2018-09-21T15:28:28.921Z,95776.99
2018-09-21T15:30:57.183Z,95776.07
2018-09-21T15:33:25.432Z,95776.50
2018-09-21T15:35:53.759Z,95768.77
2018-09-21T15:38:22.030Z,95759.66
2018-09-21T15:40:50.271Z,95761.64
2018-09-21T15:43:18.568Z,95758.57
2018-09-21T15:45:46.754Z,95751.41
2018-09-21T15:48:14.967Z,95753.55
2018-09-21T15:50:43.299Z,95755.71
2018-09-21T15:53:11.563Z,95758.48
2018-09-21T15:55:39.859Z,95758.78
2018-09-21T15:58:08.087Z,95760.22
2018-09-21T16:00:36.739Z,95755.41
2018-09-21T16:03:05.005Z,95759.05
2018-09-21T16:05:33.253Z,95765.07
2018-09-21T16:08:01.607Z,95758.91
2018-09-21T16:10:29.928Z,95760.34
2018-09-21T16:12:58.207Z,95754.80
2018-09-21T16:15:26.810Z,95746.26
2018-09-21T16:17:55.117Z,95751.64
2018-09-21T16:20:23.359Z,95753.85
2018-09-21T16:22:51.670Z,95758.16
2018-09-21T16:25:19.948Z,95762.11
2018-09-21T16:27:48.210Z,95758.92
2018-09-21T16:30:16.547Z,95764.13
2018-09-21T16:32:44.845Z,95763.61
2018-09-21T16:35:13.121Z,95765.63
2018-09-21T16:37:41.493Z,95769.52
2018-09-21T16:40:09.851Z,95771.77
2018-09-21T16:42:38.131Z,95778.64
2018-09-21T16:45:06.924Z,95777.41
2018-09-21T16:47:35.986Z,95785.08
2018-09-21T16:50:04.642Z,95784.83
2018-09-21T16:52:33.131Z,95794.61
2018-09-21T16:55:01.491Z,95814.73
2018-09-21T16:57:29.762Z,95818.28
2018-09-21T16:59:58.042Z,95819.95
2018-09-21T17:02:26.306Z,95824.33
2018-09-21T17:04:54.772Z,95817.06
2018-09-21T17:07:23.040Z,95826.06
2018-09-21T17:09:51.329Z,95825.82
2018-09-21T17:12:20.571Z,95833.72
2018-09-21T17:14:49.038Z,95843.79
2018-09-21T17:17:17.388Z,95851.16
2018-09-21T17:19:45.739Z,95853.37
2018-09-21T17:22:14.036Z,95858.57
2018-09-21T17:24:42.298Z,95864.84
2018-09-21T17:27:10.540Z,95875.48
2018-09-21T17:29:38.882Z,95876.63
2018-09-21T17:32:07.140Z,95874.47
2018-09-21T17:34:35.399Z,95879.37
2018-09-21T17:37:03.711Z,95885.61
2018-09-21T17:39:32.070Z,95889.42
2018-09-21T17:42:00.314Z,95898.91
2018-09-21T17:44:28.594Z,95906.26
2018-09-21T17:46:56.905Z,95908.17
2018-09-21T17:49:25.119Z,95918.47
2018-09-21T17:51:54.089Z,95922.27
2018-09-21T17:54:22.515Z,95937.98
2018-09-21T17:56:50.834Z,95949.38
2018-09-21T17:59:19.201Z,95953.17
2018-09-21T18:01:47.466Z,95963.21
2018-09-21T18:04:15.722Z,95967.28
2018-09-21T18:06:44.098Z,95975.95
2018-09-21T18:09:12.332Z,95983.81
2018-09-21T18:11:40.659Z,95988.42
2018-09-21T18:14:09.006Z,95994.09
2018-09-21T18:16:37.346Z,95995.69
2018-09-21T18:19:05.595Z,96003.25
2018-09-21T18:21:34.007Z,96007.84
2018-09-21T18:24:02.259Z,96010.53
2018-09-21T18:26:30.536Z,96018.63
2018-09-21T18:28:58.841Z,96029.19
2018-09-21T18:31:27.198Z,96039.47
2018-09-21T18:33:55.651Z,96038.37
2018-09-21T18:36:24.013Z,96037.02
2018-09-21T18:38:52.275Z,96052.45
2018-09-21T18:41:20.631Z,96060.27
2018-09-21T18:43:48.927Z,96056.19
2018-09-21T18:46:17.592Z,96060.18
2018-09-21T18:48:46.107Z,96074.69
2018-09-21T18:51:14.569Z,96090.56
2018-09-21T18:53:42.945Z,96096.92
2018-09-21T18:56:11.266Z,96109.18
2018-09-21T18:58:39.751Z,96114.20
2018-09-21T19:01:08.123Z,96116.52
2018-09-21T19:03:36.450Z,96111.48
2018-09-21T19:06:04.870Z,96108.34
2018-09-21T19:08:33.190Z,96119.74
2018-09-21T19:11:01.503Z,96115.59
2018-09-21T19:13:29.831Z,96120.05
2018-09-21T19:15:58.117Z,96127.64
2018-09-21T19:18:26.404Z,96126.85
2018-09-21T19:20:54.680Z,96132.56
2018-09-21T19:23:23.263Z,96145.17
2018-09-21T19:25:51.580Z,96142.72
2018-09-21T19:28:20.239Z,96146.45
2018-09-21T19:30:49.727Z,96141.30
2018-09-21T19:33:18.266Z,96140.95
2018-09-21T19:35:47.215Z,96149.80
2018-09-21T19:38:15.899Z,96160.83
2018-09-21T19:40:44.741Z,96157.57
2018-09-21T19:43:14.455Z,96161.27
2018-09-21T19:45:43.133Z,96161.32
2018-09-21T19:48:11.425Z,96167.49
2018-09-21T19:50:39.909Z,96176.93
2018-09-21T19:53:08.398Z,96188.79
2018-09-21T19:55:37.649Z,96191.94
2018-09-21T19:58:06.887Z,96192.36
2018-09-21T20:00:35.303Z,96207.39
2018-09-21T20:03:03.805Z,96218.17
2018-09-21T20:05:32.475Z,96224.34
2018-09-21T20:08:00.919Z,96227.72
2018-09-21T20:10:29.323Z,96231.96
2018-09-21T20:12:58.083Z,96261.30
2018-09-21T20:15:26.403Z,96265.78
2018-09-21T20:17:54.725Z,96278.36
2018-09-21T20:20:23.187Z,96300.38
2018-09-21T20:22:51.662Z,96318.50
2018-09-21T20:25:20.217Z,96328.90
2018-09-21T20:27:48.648Z,96328.34
2018-09-21T20:30:22.463Z,96320.16
2018-09-21T20:32:55.993Z,96341.63
2018-09-21T20:35:30.982Z,96348.34
2018-09-21T20:37:59.360Z,96360.47
2018-09-21T20:40:28.379Z,96387.50
2018-09-21T20:42:56.762Z,96390.63
2018-09-21T20:45:25.211Z,96405.25
2018-09-21T20:47:53.537Z,96416.80
2018-09-21T20:50:21.888Z,96451.86
2018-09-21T20:52:50.385Z,96469.02
2018-09-21T20:55:18.960Z,96481.11
2018-09-21T20:57:47.289Z,96508.23
2018-09-21T21:00:15.664Z,96527.33
2018-09-21T21:02:44.028Z,96534.53
2018-09-21T21:05:12.405Z,96545.07
2018-09-21T21:07:41.070Z,96547.36
2018-09-21T21:10:09.399Z,96575.83
2018-09-21T21:12:37.856Z,96586.59
2018-09-21T21:15:06.617Z,96602.32
2018-09-21T21:17:34.978Z,96617.82
2018-09-21T21:20:03.428Z,96628.80
2018-09-21T21:22:31.940Z,96635.59
2018-09-21T21:25:00.505Z,96641.95
2018-09-21T21:27:28.932Z,96651.53
2018-09-21T21:29:57.348Z,96662.85
2018-09-21T21:32:25.697Z,96677.11
2018-09-21T21:34:54.060Z,96689.05
2018-09-21T21:37:22.467Z,96707.43
2018-09-21T21:39:50.796Z,96707.58
2018-09-21T21:42:20.008Z,96708.28
2018-09-21T21:44:48.444Z,96715.28
2018-09-21T21:47:16.771Z,96726.92
2018-09-21T21:49:45.176Z,96735.03
2018-09-21T21:52:14.152Z,96739.31
2018-09-21T21:54:42.490Z,96742.84
2018-09-21T21:57:10.826Z,96745.91
2018-09-21T21:59:39.203Z,96731.03
2018-09-21T22:02:10.595Z,96732.88
2018-09-21T22:04:40.245Z,96737.97
2018-09-21T22:07:09.648Z,96750.70
2018-09-21T22:09:38.053Z,96750.43
2018-09-21T22:12:11.928Z,96755.16
2018-09-21T22:14:40.399Z,96766.12
2018-09-21T22:17:09.060Z,96772.34
2018-09-21T22:19:37.535Z,96778.31
2018-09-21T22:22:06.192Z,96782.42
2018-09-21T22:24:34.632Z,96784.80
2018-09-21T22:27:03.151Z,96769.39
2018-09-21T22:29:31.595Z,96774.13
2018-09-21T22:31:59.943Z,96767.63
2018-09-21T22:34:28.398Z,96772.70
2018-09-21T22:36:56.739Z,96779.98
2018-09-21T22:39:25.087Z,96783.48
2018-09-21T22:41:54.786Z,96780.47
2018-09-21T22:44:23.187Z,96787.40
2018-09-21T22:46:51.581Z,96779.72
2018-09-21T22:49:22.334Z,96780.34
2018-09-21T22:51:50.688Z,96793.17
2018-09-21T22:54:19.063Z,96776.70
2018-09-21T22:56:47.564Z,96767.02
2018-09-21T22:59:15.963Z,96788.30
2018-09-21T23:01:45.160Z,96784.90
2018-09-21T23:04:13.788Z,96799.36
2018-09-21T23:06:42.308Z,96795.34
2018-09-21T23:09:12.337Z,96814.66
2018-09-21T23:11:41.600Z,96815.67
2018-09-21T23:14:10.560Z,96803.66
2018-09-21T23:16:39.336Z,96804.31
2018-09-21T23:19:07.920Z,96809.55
2018-09-21T23:21:36.268Z,96815.27
2018-09-21T23:24:04.727Z,96813.50
2018-09-21T23:26:33.251Z,96833.34
2018-09-21T23:29:01.821Z,96837.98
2018-09-21T23:31:30.267Z,96844.09
2018-09-21T23:33:58.703Z,96852.77
2018-09-21T23:36:27.043Z,96841.62
2018-09-21T23:38:55.528Z,96834.27
2018-09-21T23:41:24.026Z,96835.21
2018-09-21T23:43:52.500Z,96849.02
2018-09-21T23:46:20.840Z,96867.17
2018-09-21T23:48:49.280Z,96877.53
2018-09-21T23:51:17.707Z,96880.21
2018-09-21T23:53:46.161Z,96879.68
2018-09-21T23:56:14.623Z,96877.78
2018-09-21T23:58:43.039Z,96874.36
